createdAt,value
2024-03-03T00:00:51.142Z,98915.59
2024-03-03T00:03:39.953Z,98919.09
2024-03-03T00:06:09.428Z,98926.63
2024-03-03T00:08:39.625Z,98920.03
2024-03-03T00:11:08.733Z,98920.84
2024-03-03T00:13:37.424Z,98925.84
2024-03-03T00:16:07.033Z,98923.69
2024-03-03T00:18:39.235Z,98921.88
2024-03-03T00:21:14.329Z,98921.75
2024-03-03T00:23:44.607Z,98923.06
2024-03-03T00:26:13.529Z,98927.16
2024-03-03T00:28:42.218Z,98922.56
2024-03-03T00:31:11.461Z,98918.25
2024-03-03T00:33:40.198Z,98916.44
2024-03-03T00:36:09.651Z,98922.34
2024-03-03T00:38:38.769Z,98917.81
2024-03-03T00:41:09.217Z,98903.56
2024-03-03T00:43:37.933Z,98918.47
2024-03-03T00:46:07.430Z,98907.78
2024-03-03T00:48:36.371Z,98912.78
2024-03-03T00:51:05.772Z,98907.34
2024-03-03T00:53:34.520Z,98909.00
2024-03-03T00:56:03.547Z,98904.00
2024-03-03T00:58:33.556Z,98903.69
2024-03-03T01:01:02.891Z,98902.97
2024-03-03T01:03:33.072Z,98898.72
2024-03-03T01:06:02.143Z,98885.25
2024-03-03T01:08:30.794Z,98898.66
2024-03-03T01:11:00.140Z,98899.38
2024-03-03T01:13:28.938Z,98895.78
2024-03-03T01:15:59.452Z,98894.03
2024-03-03T01:18:29.220Z,98895.53
2024-03-03T01:20:58.164Z,98895.34
2024-03-03T01:23:26.882Z,98887.56
2024-03-03T01:25:56.115Z,98883.97
2024-03-03T01:28:24.852Z,98885.69
2024-03-03T01:30:53.960Z,98885.84
2024-03-03T01:33:24.167Z,98872.53
2024-03-03T01:35:53.100Z,98876.47
2024-03-03T01:38:22.035Z,98870.22
2024-03-03T01:40:54.001Z,98865.72
2024-03-03T01:43:23.240Z,98869.63
2024-03-03T01:45:52.261Z,98857.06
2024-03-03T01:48:21.012Z,98860.38
2024-03-03T01:50:52.768Z,98857.03
2024-03-03T01:53:22.606Z,98864.13
2024-03-03T01:55:51.920Z,98851.16
2024-03-03T01:58:20.983Z,98849.56
2024-03-03T02:00:50.446Z,98845.28
2024-03-03T02:03:20.486Z,98846.97
2024-03-03T02:05:49.621Z,98844.72
2024-03-03T02:08:20.197Z,98846.44
2024-03-03T02:10:49.746Z,98849.88
2024-03-03T02:13:18.714Z,98842.16
2024-03-03T02:15:48.193Z,98846.50
2024-03-03T02:18:16.882Z,98850.09
2024-03-03T02:20:45.937Z,98847.00
2024-03-03T02:23:15.985Z,98848.69
2024-03-03T02:25:45.454Z,98851.66
2024-03-03T02:28:14.970Z,98853.56
2024-03-03T02:30:44.117Z,98855.22
2024-03-03T02:33:12.950Z,98849.94
2024-03-03T02:35:41.911Z,98849.13
2024-03-03T02:38:10.604Z,98848.31
2024-03-03T02:40:41.007Z,98851.78
2024-03-03T02:43:10.663Z,98847.53
2024-03-03T02:45:39.756Z,98862.78
2024-03-03T02:48:09.079Z,98852.94
2024-03-03T02:50:38.041Z,98844.31
2024-03-03T02:53:06.993Z,98839.06
2024-03-03T02:55:35.967Z,98846.56
2024-03-03T02:58:06.906Z,98839.72
2024-03-03T03:00:37.233Z,98849.06
2024-03-03T03:03:06.134Z,98850.06
2024-03-03T03:05:35.270Z,98857.69
2024-03-03T03:08:04.061Z,98851.91
2024-03-03T03:10:33.083Z,98846.28
2024-03-03T03:13:01.834Z,98851.44
2024-03-03T03:15:36.475Z,98845.44
2024-03-03T03:18:06.072Z,98851.47
2024-03-03T03:20:35.641Z,98853.00
2024-03-03T03:23:04.518Z,98853.09
2024-03-03T03:25:33.465Z,98851.34
2024-03-03T03:28:02.068Z,98856.47
2024-03-03T03:30:32.488Z,98858.31
2024-03-03T03:33:01.147Z,98860.78
2024-03-03T03:35:30.133Z,98862.25
2024-03-03T03:37:58.790Z,98854.34
2024-03-03T03:40:27.775Z,98857.63
2024-03-03T03:42:56.532Z,98857.72
2024-03-03T03:45:25.591Z,98844.50
2024-03-03T03:47:55.631Z,98848.81
2024-03-03T03:50:24.589Z,98850.94
2024-03-03T03:52:53.285Z,98854.06
2024-03-03T03:55:22.264Z,98856.53
2024-03-03T03:57:50.914Z,98855.84
2024-03-03T04:00:20.025Z,98861.78
2024-03-03T04:02:48.710Z,98862.38
2024-03-03T04:05:19.471Z,98861.38
2024-03-03T04:07:48.105Z,98859.31
2024-03-03T04:10:19.636Z,98863.13
2024-03-03T04:12:48.510Z,98864.59
2024-03-03T04:15:17.727Z,98859.97
2024-03-03T04:17:46.466Z,98863.41
2024-03-03T04:20:15.610Z,98859.00
2024-03-03T04:22:45.753Z,98864.31
2024-03-03T04:25:14.803Z,98859.06
2024-03-03T04:27:43.452Z,98848.56
2024-03-03T04:30:12.968Z,98851.31
2024-03-03T04:32:41.608Z,98855.00
2024-03-03T04:35:10.962Z,98853.06
2024-03-03T04:37:39.645Z,98858.97
2024-03-03T04:40:10.976Z,98856.22
2024-03-03T04:42:39.743Z,98861.09
2024-03-03T04:45:10.049Z,98863.38
2024-03-03T04:47:40.186Z,98860.69
2024-03-03T04:50:11.109Z,98855.00
2024-03-03T04:52:40.024Z,98855.09
2024-03-03T04:55:10.729Z,98855.94
2024-03-03T04:57:39.724Z,98854.50
2024-03-03T05:00:10.388Z,98866.06
2024-03-03T05:02:39.376Z,98860.88
2024-03-03T05:05:09.475Z,98868.06
2024-03-03T05:07:38.403Z,98867.47
2024-03-03T05:10:09.018Z,98872.50
2024-03-03T05:12:39.253Z,98874.09
2024-03-03T05:15:09.298Z,98867.19
2024-03-03T05:17:38.086Z,98869.69
2024-03-03T05:20:10.245Z,98873.50
2024-03-03T05:22:39.279Z,98869.34
2024-03-03T05:25:10.271Z,98872.31
2024-03-03T05:27:40.381Z,98874.84
2024-03-03T05:30:10.080Z,98872.91
2024-03-03T05:32:38.742Z,98873.06
2024-03-03T05:35:08.029Z,98880.97
2024-03-03T05:37:36.696Z,98874.88
2024-03-03T05:40:06.704Z,98883.50
2024-03-03T05:42:35.421Z,98883.50
2024-03-03T05:45:06.993Z,98892.13
2024-03-03T05:47:35.666Z,98891.47
2024-03-03T05:50:04.773Z,98884.63
2024-03-03T05:52:33.447Z,98881.28
2024-03-03T05:55:02.535Z,98886.69
2024-03-03T05:57:32.399Z,98889.34
2024-03-03T06:00:01.420Z,98887.47
2024-03-03T06:02:31.814Z,98881.38
2024-03-03T06:05:00.870Z,98880.47
2024-03-03T06:07:29.674Z,98884.88
2024-03-03T06:09:57.794Z,98882.19
2024-03-03T06:12:26.518Z,98876.59
2024-03-03T06:14:55.719Z,98873.84
2024-03-03T06:17:24.457Z,98878.94
2024-03-03T06:19:55.249Z,98876.94
2024-03-03T06:22:23.934Z,98879.34
2024-03-03T06:24:53.052Z,98874.03
2024-03-03T06:27:21.710Z,98875.38
2024-03-03T06:29:50.679Z,98887.28
2024-03-03T06:32:19.410Z,98878.19
2024-03-03T06:34:50.370Z,98873.44
2024-03-03T06:37:20.559Z,98879.81
2024-03-03T06:39:50.123Z,98870.81
2024-03-03T06:42:19.624Z,98876.25
2024-03-03T06:44:49.107Z,98879.41
2024-03-03T06:47:17.953Z,98875.75
2024-03-03T06:49:46.941Z,98878.84
2024-03-03T06:52:15.707Z,98867.88
2024-03-03T06:54:46.109Z,98875.13
2024-03-03T06:57:15.169Z,98875.53
2024-03-03T06:59:44.208Z,98870.63
2024-03-03T07:02:12.942Z,98876.34
2024-03-03T07:04:42.486Z,98881.31
2024-03-03T07:07:11.621Z,98877.22
2024-03-03T07:09:41.131Z,98878.53
2024-03-03T07:12:11.376Z,98876.38
2024-03-03T07:14:43.771Z,98879.22
2024-03-03T07:17:12.710Z,98881.47
2024-03-03T07:19:42.461Z,98883.88
2024-03-03T07:22:11.236Z,98881.66
2024-03-03T07:24:40.387Z,98885.75
2024-03-03T07:27:10.495Z,98888.84
2024-03-03T07:29:40.006Z,98884.28
2024-03-03T07:32:08.888Z,98882.38
2024-03-03T07:34:37.821Z,98884.31
2024-03-03T07:37:06.570Z,98891.88
2024-03-03T07:39:36.215Z,98892.31
2024-03-03T07:42:05.050Z,98900.78
2024-03-03T07:44:35.488Z,98900.25
2024-03-03T07:47:05.079Z,98899.88
2024-03-03T07:49:34.141Z,98899.34
2024-03-03T07:52:02.830Z,98913.13
2024-03-03T07:54:31.749Z,98907.53
2024-03-03T07:57:00.419Z,98908.94
2024-03-03T07:59:29.646Z,98903.06
2024-03-03T08:02:00.069Z,98904.25
2024-03-03T08:04:29.766Z,98904.91
2024-03-03T08:06:58.697Z,98910.66
2024-03-03T08:09:27.670Z,98899.84
2024-03-03T08:11:56.332Z,98900.41
2024-03-03T08:14:25.402Z,98900.69
2024-03-03T08:16:54.057Z,98897.47
2024-03-03T08:19:24.471Z,98901.09
2024-03-03T08:21:53.296Z,98898.44
2024-03-03T08:24:22.293Z,98902.72
2024-03-03T08:26:51.184Z,98899.69
2024-03-03T08:29:21.451Z,98891.91
2024-03-03T08:31:50.108Z,98897.94
2024-03-03T08:34:19.151Z,98904.19
2024-03-03T08:36:49.348Z,98903.47
2024-03-03T08:39:19.105Z,98907.97
2024-03-03T08:41:47.763Z,98910.66
2024-03-03T08:44:16.840Z,98920.59
2024-03-03T08:46:45.480Z,98913.28
2024-03-03T08:49:14.541Z,98903.78
2024-03-03T08:51:44.621Z,98908.44
2024-03-03T08:54:15.046Z,98913.13
2024-03-03T08:56:44.873Z,98906.91
2024-03-03T08:59:14.665Z,98907.13
2024-03-03T09:01:43.540Z,98906.84
2024-03-03T09:04:13.956Z,98905.31
2024-03-03T09:06:42.945Z,98911.50
2024-03-03T09:09:12.188Z,98909.47
2024-03-03T09:11:42.310Z,98912.81
2024-03-03T09:14:11.333Z,98902.22
2024-03-03T09:16:40.205Z,98913.63
2024-03-03T09:19:09.996Z,98907.84
2024-03-03T09:21:41.327Z,98906.56
2024-03-03T09:24:11.413Z,98904.16
2024-03-03T09:26:42.053Z,98897.53
2024-03-03T09:29:11.107Z,98901.47
2024-03-03T09:31:40.174Z,98905.09
2024-03-03T09:34:09.218Z,98895.72
2024-03-03T09:36:37.948Z,98894.88
2024-03-03T09:39:06.933Z,98890.19
2024-03-03T09:41:35.670Z,98889.31
2024-03-03T09:44:12.404Z,98885.66
2024-03-03T09:46:42.098Z,98882.66
2024-03-03T09:49:16.337Z,98877.28
2024-03-03T09:51:46.912Z,98880.63
2024-03-03T09:54:17.338Z,98875.75
2024-03-03T09:56:47.624Z,98877.47
2024-03-03T09:59:19.255Z,98876.38
2024-03-03T10:01:52.793Z,98876.06
2024-03-03T10:04:23.980Z,98877.78
2024-03-03T10:06:56.017Z,98882.84
2024-03-03T10:09:27.434Z,98883.53
2024-03-03T10:11:59.630Z,98873.59
2024-03-03T10:14:31.111Z,98881.19
2024-03-03T10:17:00.684Z,98874.88
2024-03-03T10:19:31.455Z,98869.31
2024-03-03T10:22:02.143Z,98861.84
2024-03-03T10:24:31.407Z,98864.84
2024-03-03T10:27:01.689Z,98871.34
2024-03-03T10:29:34.593Z,98877.84
2024-03-03T10:32:10.976Z,98860.78
2024-03-03T10:34:40.498Z,98855.19
2024-03-03T10:37:09.317Z,98860.47
2024-03-03T10:39:39.842Z,98849.59
2024-03-03T10:42:10.068Z,98842.19
2024-03-03T10:44:40.503Z,98842.34
2024-03-03T10:47:10.436Z,98844.31
2024-03-03T10:49:41.235Z,98843.06
2024-03-03T10:52:11.184Z,98834.78
2024-03-03T10:54:40.753Z,98827.31
2024-03-03T10:57:12.322Z,98830.19
2024-03-03T10:59:44.595Z,98822.66
2024-03-03T11:02:15.719Z,98823.72
2024-03-03T11:04:44.978Z,98806.31
2024-03-03T11:07:13.807Z,98814.97
2024-03-03T11:09:45.438Z,98800.84
2024-03-03T11:12:18.704Z,98807.09
2024-03-03T11:14:49.870Z,98806.69
2024-03-03T11:17:21.385Z,98793.19
2024-03-03T11:19:51.424Z,98789.47
2024-03-03T11:22:24.377Z,98790.41
2024-03-03T11:24:59.676Z,98782.69
2024-03-03T11:27:30.228Z,98779.63
2024-03-03T11:30:00.731Z,98768.84
2024-03-03T11:32:31.523Z,98775.25
2024-03-03T11:35:01.541Z,98775.31
2024-03-03T11:37:31.259Z,98772.72
2024-03-03T11:40:02.532Z,98770.59
2024-03-03T11:42:39.992Z,98772.78
2024-03-03T11:45:12.517Z,98766.44
2024-03-03T11:47:47.615Z,98767.16
2024-03-03T11:50:20.957Z,98757.13
2024-03-03T11:52:51.061Z,98750.31
2024-03-03T11:55:25.413Z,98749.59
2024-03-03T11:57:56.978Z,98752.97
2024-03-03T12:00:28.783Z,98746.09
2024-03-03T12:02:58.862Z,98749.13
2024-03-03T12:05:28.583Z,98739.63
2024-03-03T12:07:58.559Z,98745.06
2024-03-03T12:10:29.453Z,98743.44
2024-03-03T12:12:59.763Z,98746.22
2024-03-03T12:15:31.299Z,98744.66
2024-03-03T12:18:01.404Z,98741.00
2024-03-03T12:20:31.895Z,98743.97
2024-03-03T12:23:00.569Z,98736.19
2024-03-03T12:25:29.692Z,98741.31
2024-03-03T12:27:59.434Z,98731.94
2024-03-03T12:30:36.488Z,98733.63
2024-03-03T12:33:08.707Z,98729.28
2024-03-03T12:35:38.886Z,98735.22
2024-03-03T12:38:09.472Z,98729.34
2024-03-03T12:40:38.705Z,98731.03
2024-03-03T12:43:07.571Z,98729.22
2024-03-03T12:45:37.971Z,98723.25
2024-03-03T12:48:09.082Z,98721.03
2024-03-03T12:50:38.198Z,98723.09
2024-03-03T12:53:15.724Z,98718.56
2024-03-03T12:55:52.422Z,98716.22
2024-03-03T12:58:20.165Z,98717.41
2024-03-03T13:00:51.640Z,98718.44
2024-03-03T13:03:20.303Z,98712.28
2024-03-03T13:05:50.180Z,98717.59
2024-03-03T13:08:19.185Z,98711.84
2024-03-03T13:10:48.478Z,98714.53
2024-03-03T13:13:18.777Z,98696.41
2024-03-03T13:15:53.550Z,98705.47
2024-03-03T13:18:24.297Z,98699.41
2024-03-03T13:20:53.545Z,98692.13
2024-03-03T13:23:23.013Z,98696.19
2024-03-03T13:25:54.282Z,98691.88
2024-03-03T13:28:23.183Z,98693.00
2024-03-03T13:30:59.627Z,98690.91
2024-03-03T13:33:33.326Z,98683.25
2024-03-03T13:36:03.288Z,98685.22
2024-03-03T13:38:32.468Z,98680.72
2024-03-03T13:41:01.740Z,98682.09
2024-03-03T13:43:31.301Z,98680.34
2024-03-03T13:46:00.595Z,98669.22
2024-03-03T13:48:31.214Z,98670.25
2024-03-03T13:51:02.344Z,98673.28
2024-03-03T13:53:32.223Z,98670.63
2024-03-03T13:56:01.286Z,98665.41
2024-03-03T13:58:30.071Z,98664.84
2024-03-03T14:00:59.387Z,98666.03
2024-03-03T14:03:31.438Z,98663.06
2024-03-03T14:06:01.879Z,98655.97
2024-03-03T14:08:30.515Z,98651.13
2024-03-03T14:10:59.594Z,98654.06
2024-03-03T14:13:28.315Z,98653.38
2024-03-03T14:15:57.341Z,98655.69
2024-03-03T14:18:26.689Z,98650.44
2024-03-03T14:20:57.391Z,98657.19
2024-03-03T14:23:27.340Z,98648.16
2024-03-03T14:25:56.533Z,98641.16
2024-03-03T14:28:25.497Z,98650.56
2024-03-03T14:30:54.479Z,98647.13
2024-03-03T14:33:23.085Z,98647.06
2024-03-03T14:35:52.366Z,98640.97
2024-03-03T14:38:20.931Z,98642.41
2024-03-03T14:40:51.194Z,98639.06
2024-03-03T14:43:19.775Z,98633.56
2024-03-03T14:45:49.280Z,98648.56
2024-03-03T14:48:18.179Z,98642.97
2024-03-03T14:50:47.042Z,98636.34
2024-03-03T14:53:15.761Z,98632.16
2024-03-03T14:55:44.729Z,98639.25
2024-03-03T14:58:14.943Z,98629.75
2024-03-03T15:00:44.013Z,98626.06
2024-03-03T15:03:13.517Z,98635.84
2024-03-03T15:05:43.200Z,98630.16
2024-03-03T15:08:12.463Z,98626.66
2024-03-03T15:10:41.458Z,98622.09
2024-03-03T15:13:10.269Z,98619.53
2024-03-03T15:15:41.357Z,98627.88
2024-03-03T15:18:10.029Z,98626.06
2024-03-03T15:20:39.253Z,98631.03
2024-03-03T15:23:07.876Z,98626.66
2024-03-03T15:25:36.955Z,98625.25
2024-03-03T15:28:06.348Z,98627.50
2024-03-03T15:30:35.533Z,98627.97
2024-03-03T15:33:06.086Z,98615.75
2024-03-03T15:35:35.089Z,98629.84
2024-03-03T15:38:03.869Z,98628.47
2024-03-03T15:40:32.843Z,98626.94
2024-03-03T15:43:01.530Z,98629.94
2024-03-03T15:45:30.485Z,98621.06
2024-03-03T15:48:00.418Z,98621.41
2024-03-03T15:50:30.829Z,98623.03
2024-03-03T15:52:59.392Z,98614.47
2024-03-03T15:55:28.325Z,98621.59
2024-03-03T15:57:57.453Z,98614.31
2024-03-03T16:00:26.391Z,98618.94
2024-03-03T16:02:55.117Z,98617.47
2024-03-03T16:05:24.514Z,98622.50
2024-03-03T16:07:56.348Z,98621.19
2024-03-03T16:10:25.347Z,98620.59
2024-03-03T16:12:54.106Z,98626.44
2024-03-03T16:15:23.874Z,98622.66
2024-03-03T16:17:53.847Z,98622.78
2024-03-03T16:20:22.892Z,98631.50
2024-03-03T16:22:51.493Z,98622.84
2024-03-03T16:25:22.025Z,98628.56
2024-03-03T16:27:51.959Z,98625.75
2024-03-03T16:30:20.962Z,98625.94
2024-03-03T16:32:49.834Z,98627.16
2024-03-03T16:35:18.841Z,98626.66
2024-03-03T16:37:47.675Z,98622.81
2024-03-03T16:40:16.660Z,98617.69
2024-03-03T16:42:59.840Z,98622.34
2024-03-03T16:45:29.232Z,98630.66
2024-03-03T16:47:59.161Z,98622.09
2024-03-03T16:50:29.320Z,98624.84
2024-03-03T16:52:58.478Z,98625.38
2024-03-03T16:55:27.529Z,98633.47
2024-03-03T16:57:59.487Z,98634.81
2024-03-03T17:00:28.733Z,98637.94
2024-03-03T17:02:57.452Z,98637.19
2024-03-03T17:05:26.609Z,98637.09
2024-03-03T17:07:56.250Z,98643.50
2024-03-03T17:10:26.338Z,98647.56
2024-03-03T17:12:56.338Z,98640.50
2024-03-03T17:15:26.763Z,98644.56
2024-03-03T17:17:55.909Z,98651.84
2024-03-03T17:20:26.481Z,98654.41
2024-03-03T17:22:58.240Z,98649.91
2024-03-03T17:25:27.812Z,98644.53
2024-03-03T17:27:56.589Z,98646.41
2024-03-03T17:30:26.996Z,98645.38
2024-03-03T17:32:55.703Z,98642.91
2024-03-03T17:35:27.008Z,98644.13
2024-03-03T17:37:55.608Z,98650.28
2024-03-03T17:40:27.331Z,98648.16
2024-03-03T17:42:56.810Z,98646.38
2024-03-03T17:45:28.693Z,98644.72
2024-03-03T17:47:57.785Z,98648.56
2024-03-03T17:50:26.762Z,98649.81
2024-03-03T17:52:55.653Z,98645.69
2024-03-03T17:55:24.840Z,98647.38
2024-03-03T17:57:53.970Z,98649.03
2024-03-03T18:00:23.305Z,98640.53
2024-03-03T18:02:53.415Z,98640.53
2024-03-03T18:05:22.515Z,98641.56
2024-03-03T18:07:51.202Z,98638.50
2024-03-03T18:10:20.314Z,98643.13
2024-03-03T18:12:49.207Z,98640.06
2024-03-03T18:15:18.218Z,98633.06
2024-03-03T18:17:46.868Z,98630.47
2024-03-03T18:20:17.767Z,98634.59
2024-03-03T18:22:46.400Z,98633.63
2024-03-03T18:25:15.713Z,98633.31
2024-03-03T18:27:44.482Z,98630.84
2024-03-03T18:30:15.054Z,98630.22
2024-03-03T18:32:44.138Z,98628.44
2024-03-03T18:35:13.961Z,98623.38
2024-03-03T18:37:44.244Z,98622.78
2024-03-03T18:40:14.328Z,98633.66
2024-03-03T18:42:43.202Z,98629.38
2024-03-03T18:45:12.329Z,98632.03
2024-03-03T18:47:41.495Z,98631.16
2024-03-03T18:50:10.654Z,98632.41
2024-03-03T18:52:39.507Z,98627.66
2024-03-03T18:55:10.716Z,98633.41
2024-03-03T18:57:39.383Z,98640.31
2024-03-03T19:00:12.146Z,98638.69
2024-03-03T19:02:41.490Z,98638.13
2024-03-03T19:05:11.014Z,98635.69
2024-03-03T19:07:40.819Z,98635.75
2024-03-03T19:10:12.813Z,98635.53
2024-03-03T19:12:41.586Z,98638.53
2024-03-03T19:15:11.572Z,98631.84
2024-03-03T19:17:41.906Z,98643.53
2024-03-03T19:20:13.131Z,98651.41
2024-03-03T19:22:41.876Z,98647.16
2024-03-03T19:25:12.961Z,98647.94
2024-03-03T19:27:41.809Z,98643.88
2024-03-03T19:30:11.536Z,98641.69
2024-03-03T19:32:40.953Z,98644.34
2024-03-03T19:35:11.746Z,98641.22
2024-03-03T19:37:40.684Z,98638.56
2024-03-03T19:40:13.284Z,98646.38
2024-03-03T19:42:42.285Z,98641.56
2024-03-03T19:45:11.774Z,98642.94
2024-03-03T19:47:41.634Z,98643.50
2024-03-03T19:50:11.609Z,98624.81
2024-03-03T19:52:40.415Z,98636.75
2024-03-03T19:55:11.131Z,98626.63
2024-03-03T19:57:39.949Z,98625.84
2024-03-03T20:00:15.505Z,98620.69
2024-03-03T20:02:44.970Z,98619.16
2024-03-03T20:05:14.190Z,98627.16
2024-03-03T20:07:43.033Z,98629.19
2024-03-03T20:10:13.754Z,98630.03
2024-03-03T20:12:42.467Z,98622.94
2024-03-03T20:15:12.437Z,98617.25
2024-03-03T20:17:41.547Z,98621.09
2024-03-03T20:20:12.126Z,98627.84
2024-03-03T20:22:41.501Z,98624.38
2024-03-03T20:25:11.277Z,98619.88
2024-03-03T20:27:41.337Z,98628.41
2024-03-03T20:30:11.128Z,98631.50
2024-03-03T20:32:39.898Z,98631.50
2024-03-03T20:35:09.784Z,98631.09
2024-03-03T20:37:39.054Z,98631.16
2024-03-03T20:40:13.422Z,98641.47
2024-03-03T20:42:44.758Z,98631.59
2024-03-03T20:45:13.830Z,98628.69
2024-03-03T20:47:43.449Z,98633.63
2024-03-03T20:50:13.094Z,98632.03
2024-03-03T20:52:42.311Z,98630.31
2024-03-03T20:55:12.825Z,98637.06
2024-03-03T20:57:43.210Z,98642.16
2024-03-03T21:00:13.222Z,98632.41
2024-03-03T21:02:42.191Z,98637.50
2024-03-03T21:05:12.092Z,98640.78
2024-03-03T21:07:40.763Z,98644.06
2024-03-03T21:10:11.096Z,98639.56
2024-03-03T21:12:39.898Z,98642.16
2024-03-03T21:15:11.293Z,98635.28
2024-03-03T21:17:40.118Z,98633.94
2024-03-03T21:20:13.701Z,98636.94
2024-03-03T21:22:42.678Z,98633.00
2024-03-03T21:25:14.631Z,98623.69
2024-03-03T21:27:43.702Z,98629.53
2024-03-03T21:30:15.021Z,98638.09
2024-03-03T21:32:44.468Z,98632.84
2024-03-03T21:35:13.438Z,98633.78
2024-03-03T21:37:42.098Z,98635.25
2024-03-03T21:40:12.787Z,98628.81
2024-03-03T21:42:41.668Z,98627.97
2024-03-03T21:45:13.104Z,98637.09
2024-03-03T21:47:43.517Z,98632.75
2024-03-03T21:50:13.420Z,98634.81
2024-03-03T21:52:42.888Z,98633.94
2024-03-03T21:55:12.048Z,98638.38
2024-03-03T21:57:40.659Z,98639.22
2024-03-03T22:00:11.964Z,98646.78
2024-03-03T22:02:44.730Z,98641.25
2024-03-03T22:05:13.832Z,98629.81
2024-03-03T22:07:42.942Z,98633.13
2024-03-03T22:10:12.282Z,98631.56
2024-03-03T22:12:40.989Z,98633.88
2024-03-03T22:15:12.209Z,98632.50
2024-03-03T22:17:41.111Z,98637.44
2024-03-03T22:20:12.813Z,98636.06
2024-03-03T22:22:42.287Z,98635.78
2024-03-03T22:25:11.345Z,98623.53
2024-03-03T22:27:40.046Z,98635.63
2024-03-03T22:30:10.264Z,98629.69
2024-03-03T22:32:38.895Z,98626.91
2024-03-03T22:35:09.383Z,98626.19
2024-03-03T22:37:39.528Z,98624.25
2024-03-03T22:40:12.015Z,98625.34
2024-03-03T22:42:40.799Z,98622.81
2024-03-03T22:45:10.327Z,98629.75
2024-03-03T22:47:39.586Z,98632.25
2024-03-03T22:50:09.589Z,98634.06
2024-03-03T22:52:41.204Z,98637.06
2024-03-03T22:55:11.688Z,98641.28
2024-03-03T22:57:40.427Z,98630.78
2024-03-03T23:00:14.071Z,98639.19
2024-03-03T23:02:42.788Z,98631.31
2024-03-03T23:05:11.723Z,98638.13
2024-03-03T23:07:41.834Z,98639.78
2024-03-03T23:10:12.546Z,98628.69
2024-03-03T23:12:41.257Z,98638.94
2024-03-03T23:15:11.201Z,98631.09
2024-03-03T23:17:40.300Z,98634.53
2024-03-03T23:20:10.539Z,98631.09
2024-03-03T23:22:39.453Z,98633.44
2024-03-03T23:25:10.830Z,98628.66
2024-03-03T23:27:39.488Z,98624.06
2024-03-03T23:30:09.448Z,98626.88
2024-03-03T23:32:38.615Z,98626.88
2024-03-03T23:35:07.860Z,98632.38
2024-03-03T23:37:37.391Z,98633.06
2024-03-03T23:40:07.619Z,98637.41
2024-03-03T23:42:38.289Z,98635.91
2024-03-03T23:45:08.146Z,98631.78
2024-03-03T23:47:36.753Z,98631.94
2024-03-03T23:50:06.947Z,98629.28
2024-03-03T23:52:36.792Z,98632.34
2024-03-03T23:55:06.545Z,98638.44
2024-03-03T23:57:35.329Z,98628.41
